createdAt,value
2018-10-06T00:03:40.742Z,2.49
2018-10-06T00:09:35.741Z,3.46
2018-10-06T00:15:30.750Z,2.47
2018-10-06T00:21:25.748Z,2.53
2018-10-06T00:27:20.735Z,2.81
2018-10-06T00:33:15.741Z,2.64
2018-10-06T00:39:10.733Z,2.73
2018-10-06T00:45:05.743Z,2.79
2018-10-06T00:51:00.753Z,2.92
2018-10-06T00:56:55.734Z,2.4
2018-10-06T01:02:50.729Z,2.71
2018-10-06T01:08:45.803Z,2.75
2018-10-06T01:14:40.764Z,3.23
2018-10-06T01:20:35.761Z,2.89
2018-10-06T01:26:30.749Z,2.67
2018-10-06T01:32:25.723Z,3.22
2018-10-06T01:38:20.750Z,2.57
2018-10-06T01:44:15.747Z,2.6
2018-10-06T01:50:10.759Z,3.51
2018-10-06T01:56:05.769Z,2.72
2018-10-06T02:02:00.728Z,3.69
2018-10-06T02:07:55.757Z,3.79
2018-10-06T02:31:35.794Z,4.32
2018-10-06T02:31:35.990Z,3.2
2018-10-06T02:31:36.000Z,3.2
2018-10-06T02:31:36.014Z,3.2
2018-10-06T02:37:30.821Z,3.08
2018-10-06T02:43:25.811Z,2.93
2018-10-06T02:49:20.743Z,3.97
2018-10-06T02:55:15.881Z,4.15
2018-10-06T03:01:10.791Z,3.9
2018-10-06T03:07:05.791Z,4.28
2018-10-06T03:13:00.778Z,4.3
2018-10-06T03:18:55.769Z,4.74
2018-10-06T03:24:50.829Z,4.43
2018-10-06T03:30:45.819Z,4.35
2018-10-06T03:36:40.787Z,4.55
2018-10-06T03:42:35.776Z,4.92
2018-10-06T03:48:30.777Z,4.94
2018-10-06T03:54:25.766Z,4.54
2018-10-06T04:00:20.772Z,4.64
2018-10-06T04:06:15.754Z,5.05
2018-10-06T04:12:10.787Z,4.64
2018-10-06T04:18:05.759Z,5.22
2018-10-06T04:24:00.797Z,5.52
2018-10-06T04:29:55.769Z,5.16
2018-10-06T04:35:50.833Z,5.65
2018-10-06T04:41:45.772Z,5.19
2018-10-06T04:47:40.836Z,5.07
2018-10-06T04:53:35.760Z,5.55
2018-10-06T04:59:30.758Z,5.15
2018-10-06T05:05:25.798Z,5.11
2018-10-06T05:35:00.786Z,5.53
2018-10-06T05:35:00.848Z,5.27
2018-10-06T05:35:00.855Z,5.27
2018-10-06T05:35:00.897Z,5.27
2018-10-06T05:40:55.777Z,4.99
2018-10-06T05:46:50.782Z,5.62
2018-10-06T05:52:45.802Z,6
2018-10-06T05:58:40.792Z,5.09
2018-10-06T06:04:35.773Z,6.23
2018-10-06T06:10:30.775Z,5.51
2018-10-06T06:16:25.756Z,4.33
2018-10-06T06:22:20.824Z,5.07
2018-10-06T06:28:15.790Z,4.47
2018-10-06T06:34:10.794Z,4.7
2018-10-06T06:40:05.778Z,4.53
2018-10-06T06:46:00.825Z,5.01
2018-10-06T06:51:55.785Z,5.3
2018-10-06T06:57:50.844Z,5
2018-10-06T07:03:45.818Z,5.05
2018-10-06T07:09:40.764Z,5.05
2018-10-06T07:15:35.786Z,5.53
2018-10-06T07:21:30.796Z,5.86
2018-10-06T07:27:25.784Z,6.32
2018-10-06T07:33:20.815Z,6.07
2018-10-06T07:39:15.839Z,6.15
2018-10-06T07:45:10.808Z,5.55
2018-10-06T07:51:05.815Z,5.62
2018-10-06T07:57:00.813Z,6.17
2018-10-06T08:02:55.834Z,5.32
2018-10-06T08:08:50.800Z,5.27
2018-10-06T08:32:30.920Z,4.95
2018-10-06T08:32:31.002Z,4.95
2018-10-06T08:32:31.046Z,4.95
2018-10-06T08:32:34.938Z,5.36
2018-10-06T08:38:25.783Z,5.11
2018-10-06T08:44:20.785Z,5.02
2018-10-06T08:50:15.785Z,5.09
2018-10-06T08:56:10.893Z,6.5
2018-10-06T09:02:05.785Z,6.38
2018-10-06T09:08:00.769Z,6.76
2018-10-06T09:13:55.830Z,7.17
2018-10-06T09:19:50.766Z,7.26
2018-10-06T09:25:45.788Z,6.51
2018-10-06T09:31:40.776Z,6.55
2018-10-06T09:37:35.838Z,6.73
2018-10-06T09:43:30.825Z,6.91
2018-10-06T09:49:25.769Z,6.91
2018-10-06T09:55:20.782Z,7.37
2018-10-06T10:01:15.780Z,6
2018-10-06T10:07:10.928Z,7.21
2018-10-06T10:13:05.804Z,5.58
2018-10-06T10:19:00.793Z,7.02
2018-10-06T10:24:55.793Z,7.73
2018-10-06T10:48:35.814Z,6.24
2018-10-06T10:48:35.828Z,3.71
2018-10-06T10:48:35.858Z,3.71
2018-10-06T10:48:35.869Z,3.71
2018-10-06T10:54:30.871Z,3.47
2018-10-06T11:00:25.867Z,4.37
2018-10-06T11:06:20.792Z,5.17
2018-10-06T11:35:55.902Z,6.2
2018-10-06T11:35:55.915Z,6.2
2018-10-06T11:35:55.932Z,6.2
2018-10-06T11:35:55.948Z,6.2
2018-10-06T11:35:56.003Z,6.2
2018-10-06T11:41:50.821Z,7.32
2018-10-06T11:47:45.817Z,7.87
2018-10-06T11:53:40.804Z,6.45
2018-10-06T11:59:35.847Z,6.63
2018-10-06T12:05:30.829Z,6.69
2018-10-06T12:11:25.813Z,6.7
2018-10-06T12:17:20.816Z,7.16
2018-10-06T12:23:15.857Z,7.34
2018-10-06T12:29:10.856Z,7.46
2018-10-06T12:35:05.896Z,6.48
2018-10-06T12:41:00.808Z,7.47
2018-10-06T12:46:55.852Z,7.16
2018-10-06T12:52:50.801Z,7.76
2018-10-06T12:58:45.851Z,6.19
2018-10-06T13:04:40.811Z,6.92
2018-10-06T13:10:35.824Z,11.76
2018-10-06T13:16:30.914Z,10
2018-10-06T13:22:25.840Z,6.97
2018-10-06T13:28:20.984Z,7.52
2018-10-06T13:34:15.849Z,7.89
2018-10-06T13:40:10.827Z,8.69
2018-10-06T13:46:05.906Z,8.3
2018-10-06T13:52:00.821Z,8.49
2018-10-06T13:57:55.967Z,8.86
2018-10-06T14:03:50.843Z,8.86
2018-10-06T14:09:45.847Z,8.77
2018-10-06T14:33:25.851Z,9.77
2018-10-06T14:33:26.022Z,8.8
2018-10-06T14:33:26.024Z,8.8
2018-10-06T14:33:26.092Z,8.8
2018-10-06T14:39:20.832Z,7.91
2018-10-06T14:45:15.828Z,8.51
2018-10-06T14:51:10.820Z,8.62
2018-10-06T14:57:05.896Z,7.71
2018-10-06T15:03:00.885Z,13
2018-10-06T15:08:55.888Z,9.52
2018-10-06T15:14:50.847Z,7.12
2018-10-06T15:20:45.849Z,6.5
2018-10-06T15:26:40.856Z,9.5
2018-10-06T15:32:35.856Z,8.03
2018-10-06T15:38:30.823Z,10.06
2018-10-06T15:44:25.877Z,8.09
2018-10-06T15:50:20.909Z,8.61
2018-10-06T15:56:15.850Z,8.39
2018-10-06T16:02:10.835Z,9.2
2018-10-06T16:08:05.875Z,8.9
2018-10-06T16:14:00.883Z,8.56
2018-10-06T16:19:55.836Z,8.57
2018-10-06T16:25:50.896Z,8.81
2018-10-06T16:31:45.826Z,8.78
2018-10-06T16:37:40.840Z,4.23
2018-10-06T16:43:35.850Z,3.16
2018-10-06T16:49:30.912Z,4.12
2018-10-06T16:55:25.902Z,2.8
2018-10-06T17:01:20.887Z,1.98
2018-10-06T17:07:15.842Z,2.02
2018-10-06T17:36:50.849Z,2.07
2018-10-06T17:36:50.893Z,6.29
2018-10-06T17:36:50.900Z,6.29
2018-10-06T17:36:50.912Z,6.29
2018-10-06T17:36:50.938Z,6.29
2018-10-06T17:42:45.831Z,3.96
2018-10-06T17:48:40.853Z,5.83
2018-10-06T17:54:35.837Z,6.44
2018-10-06T18:00:30.896Z,9.95
2018-10-06T18:06:25.851Z,10.4
2018-10-06T18:12:20.829Z,10.7
2018-10-06T18:18:15.858Z,11.29
2018-10-06T18:24:10.868Z,14.04
2018-10-06T18:30:05.896Z,13.83
2018-10-06T18:36:00.844Z,13.27
2018-10-06T18:41:55.893Z,14.41
2018-10-06T18:47:50.848Z,14.17
2018-10-06T18:53:45.890Z,15.52
2018-10-06T18:59:40.839Z,14.58
2018-10-06T19:05:35.827Z,12.34
2018-10-06T19:11:30.895Z,12.77
2018-10-06T19:17:25.865Z,12.18
2018-10-06T19:23:20.866Z,12.05
2018-10-06T19:29:15.856Z,11.48
2018-10-06T19:35:10.859Z,10.92
2018-10-06T19:41:05.892Z,11.84
2018-10-06T19:47:00.859Z,12.63
2018-10-06T19:52:55.858Z,12.27
2018-10-06T19:58:50.859Z,12.43
2018-10-06T20:04:45.855Z,12.89
2018-10-06T20:10:40.848Z,13.21
2018-10-06T20:34:20.858Z,13.49
2018-10-06T20:34:20.983Z,13.23
2018-10-06T20:34:21.015Z,13.23
2018-10-06T20:34:21.040Z,13.23
2018-10-06T20:40:15.960Z,11.29
2018-10-06T20:46:10.889Z,12.75
2018-10-06T20:52:05.889Z,12.17
2018-10-06T20:58:00.874Z,11.61
2018-10-06T21:03:55.903Z,11.48
2018-10-06T21:09:50.843Z,11.49
2018-10-06T21:15:45.859Z,10.81
2018-10-06T21:21:40.903Z,10.02
2018-10-06T21:27:35.876Z,10.13
2018-10-06T21:33:30.893Z,8.88
2018-10-06T21:39:25.923Z,7.87
2018-10-06T21:45:20.849Z,6.15
2018-10-06T21:51:15.903Z,4.54
2018-10-06T21:57:10.938Z,3.91
2018-10-06T22:03:05.947Z,3.39
2018-10-06T22:09:00.920Z,3.44
2018-10-06T22:14:55.899Z,3.5
2018-10-06T22:20:50.856Z,3.52
2018-10-06T22:26:45.883Z,4.24
2018-10-06T22:32:40.893Z,3.66
2018-10-06T22:38:35.865Z,2.73
2018-10-06T22:44:30.876Z,1.91
2018-10-06T22:50:25.852Z,2.2
2018-10-06T22:56:20.853Z,2.36
2018-10-06T23:02:15.876Z,2.05
2018-10-06T23:08:10.936Z,2.59
2018-10-06T23:37:45.891Z,2.31
2018-10-06T23:37:45.923Z,2.28
2018-10-06T23:37:45.934Z,2.28
2018-10-06T23:37:45.990Z,2.28
2018-10-06T23:37:46.002Z,2.28
2018-10-06T23:43:40.914Z,2.22
2018-10-06T23:49:35.909Z,2.57
2018-10-06T23:55:30.958Z,2.28
